sensor_id;sensor_type;location;lat;lon;timestamp;P1;durP1;ratioP1;P2;durP2;ratioP2
53879;SDS011;39791;53.184;5.486;2023-05-23T00:02:20;36.35;;;25.10;;
53879;SDS011;39791;53.184;5.486;2023-05-23T00:04:45;43.25;;;26.83;;
53879;SDS011;39791;53.184;5.486;2023-05-23T00:07:11;38.15;;;24.98;;
53879;SDS011;39791;53.184;5.486;2023-05-23T00:09:36;42.10;;;25.65;;
53879;SDS011;39791;53.184;5.486;2023-05-23T00:12:02;40.17;;;25.42;;
53879;SDS011;39791;53.184;5.486;2023-05-23T00:14:28;42.00;;;25.17;;
53879;SDS011;39791;53.184;5.486;2023-05-23T00:16:57;44.47;;;25.95;;
53879;SDS011;39791;53.184;5.486;2023-05-23T00:19:24;38.13;;;25.77;;
53879;SDS011;39791;53.184;5.486;2023-05-23T00:21:49;40.53;;;24.23;;
53879;SDS011;39791;53.184;5.486;2023-05-23T00:24:17;38.67;;;25.30;;
53879;SDS011;39791;53.184;5.486;2023-05-23T00:26:44;40.25;;;25.65;;
53879;SDS011;39791;53.184;5.486;2023-05-23T00:29:10;37.25;;;25.50;;
53879;SDS011;39791;53.184;5.486;2023-05-23T00:31:42;35.47;;;25.98;;
53879;SDS011;39791;53.184;5.486;2023-05-23T00:34:12;34.50;;;23.92;;
53879;SDS011;39791;53.184;5.486;2023-05-23T00:36:38;37.63;;;25.98;;
53879;SDS011;39791;53.184;5.486;2023-05-23T00:39:05;35.80;;;25.13;;
53879;SDS011;39791;53.184;5.486;2023-05-23T00:41:32;38.50;;;25.80;;
53879;SDS011;39791;53.184;5.486;2023-05-23T00:43:58;35.20;;;25.42;;
53879;SDS011;39791;53.184;5.486;2023-05-23T00:46:24;37.03;;;26.10;;
53879;SDS011;39791;53.184;5.486;2023-05-23T00:48:51;32.20;;;24.23;;
53879;SDS011;39791;53.184;5.486;2023-05-23T00:51:17;39.75;;;26.65;;
53879;SDS011;39791;53.184;5.486;2023-05-23T00:53:43;35.22;;;26.63;;
53879;SDS011;39791;53.184;5.486;2023-05-23T00:56:09;31.38;;;24.00;;
53879;SDS011;39791;53.184;5.486;2023-05-23T00:58:36;38.97;;;24.38;;
53879;SDS011;39791;53.184;5.486;2023-05-23T01:01:05;31.67;;;25.17;;
53879;SDS011;39791;53.184;5.486;2023-05-23T01:03:31;36.45;;;25.70;;
53879;SDS011;39791;53.184;5.486;2023-05-23T01:05:57;44.90;;;27.30;;
53879;SDS011;39791;53.184;5.486;2023-05-23T01:08:23;41.22;;;25.52;;
53879;SDS011;39791;53.184;5.486;2023-05-23T01:10:48;35.05;;;25.80;;
53879;SDS011;39791;53.184;5.486;2023-05-23T01:21:52;31.08;;;26.20;;
53879;SDS011;39791;53.184;5.486;2023-05-23T01:24:34;35.47;;;24.30;;
53879;SDS011;39791;53.184;5.486;2023-05-23T01:29:45;43.88;;;26.40;;
53879;SDS011;39791;53.184;5.486;2023-05-23T01:32:13;38.75;;;25.88;;
53879;SDS011;39791;53.184;5.486;2023-05-23T01:34:40;33.50;;;24.95;;
53879;SDS011;39791;53.184;5.486;2023-05-23T01:37:10;45.33;;;27.33;;
53879;SDS011;39791;53.184;5.486;2023-05-23T01:39:38;36.70;;;24.17;;
53879;SDS011;39791;53.184;5.486;2023-05-23T01:42:04;33.95;;;24.83;;
53879;SDS011;39791;53.184;5.486;2023-05-23T01:44:31;35.85;;;24.85;;
53879;SDS011;39791;53.184;5.486;2023-05-23T01:46:59;35.67;;;25.50;;
53879;SDS011;39791;53.184;5.486;2023-05-23T01:49:27;38.33;;;25.50;;
53879;SDS011;39791;53.184;5.486;2023-05-23T01:51:55;43.70;;;26.38;;
53879;SDS011;39791;53.184;5.486;2023-05-23T01:54:20;40.38;;;25.90;;
53879;SDS011;39791;53.184;5.486;2023-05-23T01:56:46;36.50;;;24.83;;
53879;SDS011;39791;53.184;5.486;2023-05-23T01:59:13;38.10;;;23.85;;
53879;SDS011;39791;53.184;5.486;2023-05-23T02:01:39;38.17;;;23.20;;
53879;SDS011;39791;53.184;5.486;2023-05-23T02:04:05;30.27;;;25.08;;
53879;SDS011;39791;53.184;5.486;2023-05-23T02:06:30;35.97;;;25.55;;
53879;SDS011;39791;53.184;5.486;2023-05-23T02:08:56;34.10;;;24.02;;
53879;SDS011;39791;53.184;5.486;2023-05-23T02:11:22;29.23;;;22.08;;
53879;SDS011;39791;53.184;5.486;2023-05-23T02:13:47;30.42;;;23.40;;
53879;SDS011;39791;53.184;5.486;2023-05-23T02:16:13;33.58;;;23.35;;
53879;SDS011;39791;53.184;5.486;2023-05-23T02:18:38;29.48;;;22.58;;
53879;SDS011;39791;53.184;5.486;2023-05-23T02:21:04;31.02;;;22.88;;
53879;SDS011;39791;53.184;5.486;2023-05-23T02:23:30;32.38;;;22.45;;
53879;SDS011;39791;53.184;5.486;2023-05-23T02:25:55;31.50;;;22.33;;
53879;SDS011;39791;53.184;5.486;2023-05-23T02:28:21;32.50;;;23.08;;
53879;SDS011;39791;53.184;5.486;2023-05-23T02:30:47;38.30;;;23.50;;
53879;SDS011;39791;53.184;5.486;2023-05-23T02:33:12;32.30;;;22.33;;
53879;SDS011;39791;53.184;5.486;2023-05-23T02:35:38;30.30;;;21.98;;
53879;SDS011;39791;53.184;5.486;2023-05-23T02:38:04;30.60;;;21.55;;
53879;SDS011;39791;53.184;5.486;2023-05-23T02:40:30;28.05;;;20.73;;
53879;SDS011;39791;53.184;5.486;2023-05-23T02:42:55;31.88;;;21.70;;
53879;SDS011;39791;53.184;5.486;2023-05-23T02:45:21;26.48;;;19.58;;
53879;SDS011;39791;53.184;5.486;2023-05-23T02:47:47;33.97;;;20.25;;
53879;SDS011;39791;53.184;5.486;2023-05-23T02:50:13;23.23;;;19.23;;
53879;SDS011;39791;53.184;5.486;2023-05-23T02:52:38;28.98;;;21.83;;
53879;SDS011;39791;53.184;5.486;2023-05-23T02:55:06;31.83;;;21.58;;
53879;SDS011;39791;53.184;5.486;2023-05-23T02:57:32;29.98;;;22.05;;
53879;SDS011;39791;53.184;5.486;2023-05-23T02:59:58;28.75;;;21.70;;
53879;SDS011;39791;53.184;5.486;2023-05-23T03:02:23;29.65;;;21.60;;
53879;SDS011;39791;53.184;5.486;2023-05-23T03:04:49;24.88;;;21.25;;
53879;SDS011;39791;53.184;5.486;2023-05-23T03:07:15;30.33;;;21.63;;
53879;SDS011;39791;53.184;5.486;2023-05-23T03:09:41;28.02;;;21.27;;
53879;SDS011;39791;53.184;5.486;2023-05-23T03:12:06;31.33;;;21.60;;
53879;SDS011;39791;53.184;5.486;2023-05-23T03:14:32;27.50;;;20.25;;
53879;SDS011;39791;53.184;5.486;2023-05-23T03:16:57;30.00;;;21.63;;
53879;SDS011;39791;53.184;5.486;2023-05-23T03:19:23;30.90;;;21.45;;
53879;SDS011;39791;53.184;5.486;2023-05-23T03:21:49;25.05;;;20.35;;
53879;SDS011;39791;53.184;5.486;2023-05-23T03:24:16;26.38;;;19.83;;
53879;SDS011;39791;53.184;5.486;2023-05-23T03:26:41;29.33;;;20.58;;
53879;SDS011;39791;53.184;5.486;2023-05-23T03:29:07;26.05;;;20.80;;
53879;SDS011;39791;53.184;5.486;2023-05-23T03:31:34;23.20;;;20.15;;
53879;SDS011;39791;53.184;5.486;2023-05-23T03:34:01;31.38;;;21.60;;
53879;SDS011;39791;53.184;5.486;2023-05-23T03:36:26;25.25;;;20.30;;
53879;SDS011;39791;53.184;5.486;2023-05-23T03:38:52;27.30;;;21.67;;
53879;SDS011;39791;53.184;5.486;2023-05-23T03:41:18;29.75;;;22.42;;
53879;SDS011;39791;53.184;5.486;2023-05-23T03:43:43;30.08;;;23.88;;
53879;SDS011;39791;53.184;5.486;2023-05-23T03:46:09;26.20;;;20.02;;
53879;SDS011;39791;53.184;5.486;2023-05-23T03:48:35;28.15;;;21.85;;
53879;SDS011;39791;53.184;5.486;2023-05-23T03:51:01;27.00;;;21.95;;
53879;SDS011;39791;53.184;5.486;2023-05-23T03:53:26;24.20;;;21.25;;
53879;SDS011;39791;53.184;5.486;2023-05-23T03:55:52;27.25;;;23.35;;
53879;SDS011;39791;53.184;5.486;2023-05-23T03:58:18;29.58;;;22.40;;
53879;SDS011;39791;53.184;5.486;2023-05-23T04:00:44;30.42;;;24.08;;
53879;SDS011;39791;53.184;5.486;2023-05-23T04:03:10;31.98;;;26.08;;
53879;SDS011;39791;53.184;5.486;2023-05-23T04:05:39;43.20;;;27.20;;
53879;SDS011;39791;53.184;5.486;2023-05-23T04:08:04;31.00;;;24.25;;
53879;SDS011;39791;53.184;5.486;2023-05-23T04:10:30;27.98;;;24.98;;
53879;SDS011;39791;53.184;5.486;2023-05-23T04:12:56;28.50;;;24.85;;
53879;SDS011;39791;53.184;5.486;2023-05-23T04:15:22;26.38;;;22.75;;
53879;SDS011;39791;53.184;5.486;2023-05-23T04:17:48;30.98;;;25.33;;
53879;SDS011;39791;53.184;5.486;2023-05-23T04:20:15;42.65;;;26.83;;
53879;SDS011;39791;53.184;5.486;2023-05-23T04:22:41;35.72;;;25.30;;
53879;SDS011;39791;53.184;5.486;2023-05-23T04:25:07;29.85;;;23.88;;
53879;SDS011;39791;53.184;5.486;2023-05-23T04:27:33;26.48;;;22.25;;
53879;SDS011;39791;53.184;5.486;2023-05-23T04:29:59;28.60;;;25.48;;
53879;SDS011;39791;53.184;5.486;2023-05-23T04:32:25;28.17;;;24.92;;
53879;SDS011;39791;53.184;5.486;2023-05-23T04:34:51;28.42;;;24.67;;
53879;SDS011;39791;53.184;5.486;2023-05-23T04:37:17;29.52;;;24.83;;
53879;SDS011;39791;53.184;5.486;2023-05-23T04:39:46;29.83;;;24.98;;
53879;SDS011;39791;53.184;5.486;2023-05-23T04:42:12;33.30;;;26.00;;
53879;SDS011;39791;53.184;5.486;2023-05-23T04:44:38;29.77;;;23.67;;
53879;SDS011;39791;53.184;5.486;2023-05-23T04:47:03;26.40;;;23.58;;
53879;SDS011;39791;53.184;5.486;2023-05-23T04:49:29;28.10;;;22.92;;
53879;SDS011;39791;53.184;5.486;2023-05-23T04:51:58;28.70;;;23.92;;
53879;SDS011;39791;53.184;5.486;2023-05-23T04:54:23;28.85;;;24.33;;
53879;SDS011;39791;53.184;5.486;2023-05-23T04:56:49;29.88;;;24.63;;
53879;SDS011;39791;53.184;5.486;2023-05-23T04:59:15;32.47;;;24.55;;
53879;SDS011;39791;53.184;5.486;2023-05-23T05:01:40;30.75;;;24.98;;
53879;SDS011;39791;53.184;5.486;2023-05-23T05:04:06;29.67;;;22.63;;
53879;SDS011;39791;53.184;5.486;2023-05-23T05:06:31;29.27;;;23.05;;
53879;SDS011;39791;53.184;5.486;2023-05-23T05:08:57;25.95;;;22.02;;
53879;SDS011;39791;53.184;5.486;2023-05-23T05:11:24;27.90;;;20.83;;
53879;SDS011;39791;53.184;5.486;2023-05-23T05:13:51;30.10;;;21.05;;
53879;SDS011;39791;53.184;5.486;2023-05-23T05:16:16;29.23;;;21.80;;
53879;SDS011;39791;53.184;5.486;2023-05-23T05:18:42;30.73;;;21.20;;
53879;SDS011;39791;53.184;5.486;2023-05-23T05:21:07;29.35;;;20.45;;
53879;SDS011;39791;53.184;5.486;2023-05-23T05:23:34;33.90;;;20.58;;
53879;SDS011;39791;53.184;5.486;2023-05-23T05:26:00;32.53;;;21.50;;
53879;SDS011;39791;53.184;5.486;2023-05-23T05:28:25;33.20;;;23.00;;
53879;SDS011;39791;53.184;5.486;2023-05-23T05:30:51;24.92;;;18.00;;
53879;SDS011;39791;53.184;5.486;2023-05-23T05:33:20;30.58;;;19.13;;
53879;SDS011;39791;53.184;5.486;2023-05-23T05:35:48;31.70;;;20.88;;
53879;SDS011;39791;53.184;5.486;2023-05-23T05:38:17;28.95;;;16.38;;
53879;SDS011;39791;53.184;5.486;2023-05-23T05:40:42;29.20;;;17.45;;
53879;SDS011;39791;53.184;5.486;2023-05-23T05:43:08;32.10;;;16.98;;
53879;SDS011;39791;53.184;5.486;2023-05-23T05:45:34;32.33;;;18.75;;
53879;SDS011;39791;53.184;5.486;2023-05-23T05:48:00;28.75;;;17.58;;
53879;SDS011;39791;53.184;5.486;2023-05-23T05:50:26;32.25;;;18.48;;
53879;SDS011;39791;53.184;5.486;2023-05-23T05:52:52;27.60;;;17.10;;
53879;SDS011;39791;53.184;5.486;2023-05-23T05:55:17;28.42;;;17.15;;
53879;SDS011;39791;53.184;5.486;2023-05-23T05:57:43;35.35;;;18.83;;
53879;SDS011;39791;53.184;5.486;2023-05-23T06:00:12;29.60;;;17.85;;
53879;SDS011;39791;53.184;5.486;2023-05-23T06:02:42;28.13;;;16.45;;
53879;SDS011;39791;53.184;5.486;2023-05-23T06:05:09;30.90;;;16.92;;
53879;SDS011;39791;53.184;5.486;2023-05-23T06:07:39;32.95;;;17.73;;
53879;SDS011;39791;53.184;5.486;2023-05-23T06:10:05;40.25;;;19.50;;
53879;SDS011;39791;53.184;5.486;2023-05-23T06:12:32;32.25;;;17.38;;
53879;SDS011;39791;53.184;5.486;2023-05-23T06:14:57;30.10;;;15.32;;
53879;SDS011;39791;53.184;5.486;2023-05-23T06:17:23;34.97;;;15.55;;
53879;SDS011;39791;53.184;5.486;2023-05-23T06:19:49;31.27;;;15.32;;
53879;SDS011;39791;53.184;5.486;2023-05-23T06:22:14;34.45;;;14.73;;
53879;SDS011;39791;53.184;5.486;2023-05-23T06:24:40;32.22;;;14.18;;
53879;SDS011;39791;53.184;5.486;2023-05-23T06:27:05;31.80;;;15.25;;
53879;SDS011;39791;53.184;5.486;2023-05-23T06:29:31;32.80;;;16.65;;
53879;SDS011;39791;53.184;5.486;2023-05-23T06:31:56;33.53;;;16.70;;
53879;SDS011;39791;53.184;5.486;2023-05-23T06:34:22;26.80;;;14.60;;
53879;SDS011;39791;53.184;5.486;2023-05-23T06:36:47;33.60;;;16.75;;
53879;SDS011;39791;53.184;5.486;2023-05-23T06:39:13;29.90;;;16.98;;
53879;SDS011;39791;53.184;5.486;2023-05-23T06:41:39;39.58;;;19.50;;
53879;SDS011;39791;53.184;5.486;2023-05-23T06:44:05;36.83;;;19.77;;
53879;SDS011;39791;53.184;5.486;2023-05-23T06:46:31;33.15;;;17.13;;
53879;SDS011;39791;53.184;5.486;2023-05-23T06:48:56;24.08;;;14.40;;
53879;SDS011;39791;53.184;5.486;2023-05-23T06:51:22;27.90;;;15.13;;
53879;SDS011;39791;53.184;5.486;2023-05-23T06:53:48;28.90;;;15.07;;
53879;SDS011;39791;53.184;5.486;2023-05-23T06:56:13;29.00;;;15.00;;
53879;SDS011;39791;53.184;5.486;2023-05-23T06:58:39;28.83;;;16.38;;
53879;SDS011;39791;53.184;5.486;2023-05-23T07:01:05;31.05;;;15.63;;
53879;SDS011;39791;53.184;5.486;2023-05-23T07:03:30;31.85;;;16.25;;
53879;SDS011;39791;53.184;5.486;2023-05-23T07:05:57;27.70;;;13.65;;
53879;SDS011;39791;53.184;5.486;2023-05-23T07:08:22;32.22;;;13.70;;
53879;SDS011;39791;53.184;5.486;2023-05-23T07:10:48;31.88;;;16.30;;
53879;SDS011;39791;53.184;5.486;2023-05-23T07:13:14;30.13;;;16.65;;
53879;SDS011;39791;53.184;5.486;2023-05-23T07:15:39;26.27;;;14.00;;
53879;SDS011;39791;53.184;5.486;2023-05-23T07:18:05;24.88;;;13.98;;
53879;SDS011;39791;53.184;5.486;2023-05-23T07:20:34;35.28;;;15.18;;
53879;SDS011;39791;53.184;5.486;2023-05-23T07:22:59;29.83;;;17.05;;
53879;SDS011;39791;53.184;5.486;2023-05-23T07:25:25;37.13;;;18.25;;
53879;SDS011;39791;53.184;5.486;2023-05-23T07:27:51;29.08;;;13.57;;
53879;SDS011;39791;53.184;5.486;2023-05-23T07:30:19;28.48;;;15.55;;
53879;SDS011;39791;53.184;5.486;2023-05-23T07:32:46;30.52;;;16.10;;
53879;SDS011;39791;53.184;5.486;2023-05-23T07:35:13;28.73;;;15.20;;
53879;SDS011;39791;53.184;5.486;2023-05-23T07:37:39;34.10;;;18.73;;
53879;SDS011;39791;53.184;5.486;2023-05-23T07:40:05;32.75;;;16.42;;
53879;SDS011;39791;53.184;5.486;2023-05-23T07:42:34;31.00;;;17.17;;
53879;SDS011;39791;53.184;5.486;2023-05-23T07:45:00;27.00;;;14.10;;
53879;SDS011;39791;53.184;5.486;2023-05-23T07:47:25;27.25;;;13.25;;
53879;SDS011;39791;53.184;5.486;2023-05-23T07:49:51;25.50;;;13.25;;
53879;SDS011;39791;53.184;5.486;2023-05-23T07:52:17;27.25;;;14.00;;
53879;SDS011;39791;53.184;5.486;2023-05-23T07:54:43;28.65;;;16.08;;
53879;SDS011;39791;53.184;5.486;2023-05-23T07:57:09;33.63;;;14.73;;
53879;SDS011;39791;53.184;5.486;2023-05-23T07:59:34;32.65;;;15.00;;
53879;SDS011;39791;53.184;5.486;2023-05-23T08:02:01;29.80;;;15.80;;
53879;SDS011;39791;53.184;5.486;2023-05-23T08:04:27;29.42;;;13.68;;
53879;SDS011;39791;53.184;5.486;2023-05-23T08:06:53;30.75;;;14.48;;
53879;SDS011;39791;53.184;5.486;2023-05-23T08:09:19;35.47;;;16.85;;
53879;SDS011;39791;53.184;5.486;2023-05-23T08:11:45;30.00;;;16.48;;
53879;SDS011;39791;53.184;5.486;2023-05-23T08:14:11;29.02;;;13.80;;
53879;SDS011;39791;53.184;5.486;2023-05-23T08:16:36;24.05;;;15.15;;
53879;SDS011;39791;53.184;5.486;2023-05-23T08:19:02;25.50;;;14.38;;
53879;SDS011;39791;53.184;5.486;2023-05-23T08:21:28;27.77;;;13.85;;
53879;SDS011;39791;53.184;5.486;2023-05-23T08:23:53;23.25;;;12.82;;
53879;SDS011;39791;53.184;5.486;2023-05-23T08:26:19;32.10;;;15.90;;
53879;SDS011;39791;53.184;5.486;2023-05-23T08:28:45;29.98;;;16.42;;
53879;SDS011;39791;53.184;5.486;2023-05-23T08:31:11;33.70;;;18.30;;
53879;SDS011;39791;53.184;5.486;2023-05-23T08:33:36;29.52;;;18.73;;
53879;SDS011;39791;53.184;5.486;2023-05-23T08:36:02;31.50;;;16.73;;
53879;SDS011;39791;53.184;5.486;2023-05-23T08:38:27;28.50;;;18.20;;
53879;SDS011;39791;53.184;5.486;2023-05-23T08:40:53;35.13;;;15.25;;
53879;SDS011;39791;53.184;5.486;2023-05-23T08:43:20;24.20;;;9.52;;
53879;SDS011;39791;53.184;5.486;2023-05-23T08:45:46;22.38;;;12.52;;
53879;SDS011;39791;53.184;5.486;2023-05-23T08:48:15;18.67;;;10.52;;
53879;SDS011;39791;53.184;5.486;2023-05-23T08:50:45;27.38;;;15.13;;
53879;SDS011;39791;53.184;5.486;2023-05-23T08:53:15;22.13;;;11.88;;
53879;SDS011;39791;53.184;5.486;2023-05-23T08:55:44;27.45;;;11.90;;
53879;SDS011;39791;53.184;5.486;2023-05-23T08:58:12;27.33;;;14.57;;
53879;SDS011;39791;53.184;5.486;2023-05-23T09:00:38;24.27;;;14.55;;
53879;SDS011;39791;53.184;5.486;2023-05-23T09:03:05;32.83;;;15.00;;
53879;SDS011;39791;53.184;5.486;2023-05-23T09:05:30;27.63;;;13.23;;
53879;SDS011;39791;53.184;5.486;2023-05-23T09:07:56;22.45;;;13.90;;
53879;SDS011;39791;53.184;5.486;2023-05-23T09:10:21;24.83;;;14.45;;
53879;SDS011;39791;53.184;5.486;2023-05-23T09:12:47;25.98;;;15.73;;
53879;SDS011;39791;53.184;5.486;2023-05-23T09:15:13;24.40;;;14.75;;
53879;SDS011;39791;53.184;5.486;2023-05-23T09:17:41;26.33;;;12.93;;
53879;SDS011;39791;53.184;5.486;2023-05-23T09:20:10;20.05;;;10.23;;
53879;SDS011;39791;53.184;5.486;2023-05-23T09:22:38;22.77;;;9.23;;
53879;SDS011;39791;53.184;5.486;2023-05-23T09:25:04;24.88;;;14.02;;
53879;SDS011;39791;53.184;5.486;2023-05-23T09:27:30;22.23;;;10.98;;
53879;SDS011;39791;53.184;5.486;2023-05-23T09:29:56;24.35;;;15.55;;
53879;SDS011;39791;53.184;5.486;2023-05-23T09:32:22;18.10;;;7.60;;
53879;SDS011;39791;53.184;5.486;2023-05-23T09:34:53;18.48;;;9.75;;
53879;SDS011;39791;53.184;5.486;2023-05-23T09:37:28;20.40;;;7.10;;
53879;SDS011;39791;53.184;5.486;2023-05-23T09:39:55;22.23;;;8.80;;
53879;SDS011;39791;53.184;5.486;2023-05-23T09:42:22;21.75;;;9.02;;
53879;SDS011;39791;53.184;5.486;2023-05-23T09:44:48;18.33;;;6.72;;
53879;SDS011;39791;53.184;5.486;2023-05-23T09:47:15;23.40;;;7.40;;
53879;SDS011;39791;53.184;5.486;2023-05-23T09:49:44;26.13;;;10.50;;
53879;SDS011;39791;53.184;5.486;2023-05-23T09:52:10;29.70;;;9.13;;
53879;SDS011;39791;53.184;5.486;2023-05-23T09:54:37;20.80;;;7.65;;
53879;SDS011;39791;53.184;5.486;2023-05-23T09:57:03;16.88;;;6.70;;
53879;SDS011;39791;53.184;5.486;2023-05-23T09:59:35;22.80;;;8.75;;
53879;SDS011;39791;53.184;5.486;2023-05-23T10:02:06;22.48;;;8.18;;
53879;SDS011;39791;53.184;5.486;2023-05-23T10:04:37;27.20;;;11.52;;
53879;SDS011;39791;53.184;5.486;2023-05-23T10:07:07;27.80;;;11.48;;
53879;SDS011;39791;53.184;5.486;2023-05-23T10:09:38;29.73;;;14.52;;
53879;SDS011;39791;53.184;5.486;2023-05-23T10:14:49;27.48;;;14.35;;
53879;SDS011;39791;53.184;5.486;2023-05-23T10:17:26;20.25;;;7.03;;
53879;SDS011;39791;53.184;5.486;2023-05-23T10:20:03;26.63;;;10.88;;
53879;SDS011;39791;53.184;5.486;2023-05-23T10:22:38;22.05;;;7.68;;
53879;SDS011;39791;53.184;5.486;2023-05-23T10:25:05;22.75;;;9.90;;
53879;SDS011;39791;53.184;5.486;2023-05-23T10:27:32;21.98;;;12.40;;
53879;SDS011;39791;53.184;5.486;2023-05-23T10:29:58;19.80;;;8.80;;
53879;SDS011;39791;53.184;5.486;2023-05-23T10:32:25;23.55;;;7.95;;
53879;SDS011;39791;53.184;5.486;2023-05-23T10:45:40;22.80;;;7.05;;
53879;SDS011;39791;53.184;5.486;2023-05-23T10:48:17;19.88;;;5.88;;
53879;SDS011;39791;53.184;5.486;2023-05-23T10:51:05;20.98;;;8.18;;
53879;SDS011;39791;53.184;5.486;2023-05-23T10:53:33;23.48;;;7.90;;
53879;SDS011;39791;53.184;5.486;2023-05-23T10:56:06;17.50;;;5.32;;
53879;SDS011;39791;53.184;5.486;2023-05-23T10:58:33;18.80;;;5.45;;
53879;SDS011;39791;53.184;5.486;2023-05-23T11:01:04;29.88;;;6.97;;
53879;SDS011;39791;53.184;5.486;2023-05-23T11:09:04;24.17;;;7.35;;
53879;SDS011;39791;53.184;5.486;2023-05-23T11:16:55;19.45;;;5.53;;
53879;SDS011;39791;53.184;5.486;2023-05-23T11:19:21;24.00;;;6.05;;
53879;SDS011;39791;53.184;5.486;2023-05-23T11:22:02;20.73;;;5.40;;
53879;SDS011;39791;53.184;5.486;2023-05-23T11:24:46;19.88;;;6.38;;
53879;SDS011;39791;53.184;5.486;2023-05-23T11:29:45;21.77;;;5.35;;
53879;SDS011;39791;53.184;5.486;2023-05-23T11:32:22;21.30;;;5.72;;
53879;SDS011;39791;53.184;5.486;2023-05-23T11:34:48;21.38;;;5.72;;
53879;SDS011;39791;53.184;5.486;2023-05-23T11:37:13;17.17;;;5.93;;
53879;SDS011;39791;53.184;5.486;2023-05-23T11:39:39;23.40;;;6.25;;
53879;SDS011;39791;53.184;5.486;2023-05-23T11:42:05;21.00;;;6.15;;
53879;SDS011;39791;53.184;5.486;2023-05-23T11:44:30;18.27;;;5.13;;
53879;SDS011;39791;53.184;5.486;2023-05-23T11:47:00;18.83;;;5.95;;
53879;SDS011;39791;53.184;5.486;2023-05-23T11:49:30;26.90;;;5.57;;
53879;SDS011;39791;53.184;5.486;2023-05-23T11:52:00;18.33;;;4.70;;
53879;SDS011;39791;53.184;5.486;2023-05-23T11:54:26;22.55;;;5.43;;
53879;SDS011;39791;53.184;5.486;2023-05-23T11:56:53;20.70;;;5.43;;
53879;SDS011;39791;53.184;5.486;2023-05-23T11:59:20;22.10;;;5.15;;
53879;SDS011;39791;53.184;5.486;2023-05-23T12:01:47;19.05;;;5.00;;
53879;SDS011;39791;53.184;5.486;2023-05-23T12:04:12;18.38;;;5.28;;
53879;SDS011;39791;53.184;5.486;2023-05-23T12:06:38;17.73;;;4.80;;
53879;SDS011;39791;53.184;5.486;2023-05-23T12:09:06;16.55;;;4.60;;
53879;SDS011;39791;53.184;5.486;2023-05-23T12:11:35;18.83;;;5.43;;
53879;SDS011;39791;53.184;5.486;2023-05-23T12:14:01;17.25;;;4.80;;
53879;SDS011;39791;53.184;5.486;2023-05-23T12:16:30;16.45;;;4.45;;
53879;SDS011;39791;53.184;5.486;2023-05-23T12:18:57;19.02;;;4.25;;
53879;SDS011;39791;53.184;5.486;2023-05-23T12:21:31;14.70;;;4.18;;
53879;SDS011;39791;53.184;5.486;2023-05-23T12:24:14;21.00;;;4.75;;
53879;SDS011;39791;53.184;5.486;2023-05-23T12:29:12;15.63;;;4.28;;
53879;SDS011;39791;53.184;5.486;2023-05-23T12:31:38;20.50;;;5.30;;
53879;SDS011;39791;53.184;5.486;2023-05-23T12:34:04;13.85;;;4.03;;
53879;SDS011;39791;53.184;5.486;2023-05-23T12:36:30;20.50;;;5.55;;
53879;SDS011;39791;53.184;5.486;2023-05-23T12:39:02;20.83;;;4.72;;
53879;SDS011;39791;53.184;5.486;2023-05-23T12:41:30;21.42;;;5.35;;
53879;SDS011;39791;53.184;5.486;2023-05-23T12:43:57;19.08;;;4.70;;
53879;SDS011;39791;53.184;5.486;2023-05-23T12:46:23;19.02;;;4.53;;
53879;SDS011;39791;53.184;5.486;2023-05-23T12:48:50;15.20;;;4.32;;
53879;SDS011;39791;53.184;5.486;2023-05-23T12:51:17;17.33;;;4.50;;
53879;SDS011;39791;53.184;5.486;2023-05-23T12:53:43;16.55;;;4.10;;
53879;SDS011;39791;53.184;5.486;2023-05-23T12:56:08;16.60;;;4.65;;
53879;SDS011;39791;53.184;5.486;2023-05-23T12:58:34;18.00;;;4.68;;
53879;SDS011;39791;53.184;5.486;2023-05-23T13:01:00;20.02;;;4.43;;
53879;SDS011;39791;53.184;5.486;2023-05-23T13:03:26;16.88;;;4.03;;
53879;SDS011;39791;53.184;5.486;2023-05-23T13:05:55;14.73;;;4.60;;
53879;SDS011;39791;53.184;5.486;2023-05-23T13:08:21;16.67;;;4.80;;
53879;SDS011;39791;53.184;5.486;2023-05-23T13:10:47;18.35;;;4.50;;
53879;SDS011;39791;53.184;5.486;2023-05-23T13:13:13;17.67;;;3.88;;
53879;SDS011;39791;53.184;5.486;2023-05-23T13:15:39;14.70;;;3.95;;
53879;SDS011;39791;53.184;5.486;2023-05-23T13:18:04;18.08;;;5.32;;
53879;SDS011;39791;53.184;5.486;2023-05-23T13:20:30;21.20;;;5.40;;
53879;SDS011;39791;53.184;5.486;2023-05-23T13:22:56;13.25;;;3.95;;
53879;SDS011;39791;53.184;5.486;2023-05-23T13:25:22;20.65;;;4.85;;
53879;SDS011;39791;53.184;5.486;2023-05-23T13:27:48;15.88;;;4.82;;
53879;SDS011;39791;53.184;5.486;2023-05-23T13:30:14;18.08;;;5.63;;
53879;SDS011;39791;53.184;5.486;2023-05-23T13:32:40;18.80;;;5.13;;
53879;SDS011;39791;53.184;5.486;2023-05-23T13:35:06;17.27;;;4.53;;
53879;SDS011;39791;53.184;5.486;2023-05-23T13:37:32;16.02;;;4.80;;
53879;SDS011;39791;53.184;5.486;2023-05-23T13:40:00;20.38;;;5.28;;
53879;SDS011;39791;53.184;5.486;2023-05-23T13:42:27;18.83;;;4.88;;
53879;SDS011;39791;53.184;5.486;2023-05-23T13:44:52;15.70;;;4.10;;
53879;SDS011;39791;53.184;5.486;2023-05-23T13:47:18;20.35;;;5.53;;
53879;SDS011;39791;53.184;5.486;2023-05-23T13:49:44;18.83;;;4.72;;
53879;SDS011;39791;53.184;5.486;2023-05-23T13:52:11;17.38;;;4.70;;
53879;SDS011;39791;53.184;5.486;2023-05-23T13:54:36;14.90;;;4.28;;
53879;SDS011;39791;53.184;5.486;2023-05-23T13:57:03;20.15;;;4.63;;
53879;SDS011;39791;53.184;5.486;2023-05-23T13:59:29;18.08;;;4.32;;
53879;SDS011;39791;53.184;5.486;2023-05-23T14:01:55;15.70;;;4.55;;
53879;SDS011;39791;53.184;5.486;2023-05-23T14:04:20;14.82;;;3.97;;
53879;SDS011;39791;53.184;5.486;2023-05-23T14:06:47;20.05;;;4.18;;
53879;SDS011;39791;53.184;5.486;2023-05-23T14:09:13;18.63;;;4.43;;
53879;SDS011;39791;53.184;5.486;2023-05-23T14:11:39;20.95;;;4.72;;
53879;SDS011;39791;53.184;5.486;2023-05-23T14:14:04;13.25;;;3.88;;
53879;SDS011;39791;53.184;5.486;2023-05-23T14:16:30;18.50;;;5.07;;
53879;SDS011;39791;53.184;5.486;2023-05-23T14:18:56;14.38;;;4.03;;
53879;SDS011;39791;53.184;5.486;2023-05-23T14:21:22;17.92;;;4.20;;
53879;SDS011;39791;53.184;5.486;2023-05-23T14:23:47;22.33;;;5.60;;
53879;SDS011;39791;53.184;5.486;2023-05-23T14:26:13;15.48;;;4.18;;
53879;SDS011;39791;53.184;5.486;2023-05-23T14:28:39;18.25;;;4.80;;
53879;SDS011;39791;53.184;5.486;2023-05-23T14:31:04;19.20;;;4.63;;
53879;SDS011;39791;53.184;5.486;2023-05-23T14:33:30;17.73;;;4.63;;
53879;SDS011;39791;53.184;5.486;2023-05-23T14:35:56;16.48;;;4.60;;
53879;SDS011;39791;53.184;5.486;2023-05-23T14:38:21;20.67;;;5.28;;
53879;SDS011;39791;53.184;5.486;2023-05-23T14:40:47;22.40;;;4.72;;
53879;SDS011;39791;53.184;5.486;2023-05-23T14:43:13;17.75;;;4.32;;
53879;SDS011;39791;53.184;5.486;2023-05-23T14:45:39;13.45;;;4.30;;
53879;SDS011;39791;53.184;5.486;2023-05-23T14:48:05;17.05;;;4.85;;
53879;SDS011;39791;53.184;5.486;2023-05-23T14:50:32;18.95;;;5.30;;
53879;SDS011;39791;53.184;5.486;2023-05-23T14:52:58;17.50;;;4.43;;
53879;SDS011;39791;53.184;5.486;2023-05-23T14:55:24;16.48;;;4.22;;
53879;SDS011;39791;53.184;5.486;2023-05-23T14:57:49;20.73;;;5.25;;
53879;SDS011;39791;53.184;5.486;2023-05-23T15:00:15;21.65;;;4.60;;
53879;SDS011;39791;53.184;5.486;2023-05-23T15:02:41;20.67;;;4.80;;
53879;SDS011;39791;53.184;5.486;2023-05-23T15:05:07;21.27;;;5.30;;